Time;durP1;ratioP1;P1;durP2;ratioP2;P2;SDS_P1;SDS_P2;PMS_P1;PMS_P2;Temp;Humidity;BMP_temperature;BMP_pressure;BME280_temperature;BME280_humidity;BME280_pressure;Samples;Min_cycle;Max_cycle;Signal;HPM_P1;HPM_P2
2023/06/24 00:01:01;;;;;;;17.73;10.25;;;;;;;22.37;74.22;101858.56;5029832;28;102010;-68
2023/06/24 00:03:28;;;;;;;12.70;10.77;;;;;;;22.58;73.04;101862.47;5030640;28;98508;-69
2023/06/24 00:05:56;;;;;;;15.93;10.70;;;;;;;22.43;73.76;101871.63;5026178;27;96958;-69
2023/06/24 00:08:23;;;;;;;16.50;11.55;;;;;;;22.27;74.96;101873.59;5026875;27;97746;-69
2023/06/24 00:10:50;;;;;;;16.48;11.38;;;;;;;21.98;76.45;101872.84;5029865;27;101610;-69
2023/06/24 00:13:17;;;;;;;13.20;10.65;;;;;;;22.03;76.72;101876.09;5030031;27;97213;-70
2023/06/24 00:15:43;;;;;;;17.90;11.15;;;;;;;22.17;76.18;101878.75;5029171;27;98526;-70
2023/06/24 00:18:10;;;;;;;13.55;12.05;;;;;;;21.99;76.85;101879.09;5027010;27;98969;-70
2023/06/24 00:20:38;;;;;;;18.95;11.68;;;;;;;22.37;75.61;101879.25;5027659;27;98974;-69
2023/06/24 00:23:05;;;;;;;17.70;12.02;;;;;;;22.34;75.52;101880.28;5030355;27;98374;-70
2023/06/24 00:25:31;;;;;;;18.15;12.25;;;;;;;22.53;74.80;101891.56;5030886;27;97924;-70
2023/06/24 00:27:58;;;;;;;18.95;12.43;;;;;;;22.23;76.03;101889.09;5029318;28;102354;-69
2023/06/24 00:30:24;;;;;;;21.27;13.25;;;;;;;22.21;76.31;101891.03;5028945;28;99138;-71
2023/06/24 00:32:51;;;;;;;24.70;14.73;;;;;;;22.26;75.88;101896.97;5027217;28;96991;-69
2023/06/24 00:35:18;;;;;;;16.70;12.52;;;;;;;22.35;75.73;101892.81;5028505;28;96947;-70
2023/06/24 00:37:46;;;;;;;24.80;14.80;;;;;;;22.25;76.28;101891.69;5028919;28;99390;-70
2023/06/24 00:40:15;;;;;;;21.17;15.32;;;;;;;22.12;76.37;101893.47;5025519;28;98835;-70
2023/06/24 00:42:41;;;;;;;23.67;15.63;;;;;;;22.27;75.84;101900.50;5027998;28;98768;-70
2023/06/24 00:45:09;;;;;;;22.63;15.60;;;;;;;22.00;76.53;101899.63;5028094;28;97366;-69
2023/06/24 00:47:36;;;;;;;23.20;16.05;;;;;;;21.86;76.84;101900.50;5028321;28;98908;-70
2023/06/24 00:50:02;;;;;;;19.25;15.38;;;;;;;21.86;76.68;101901.34;5025632;28;98942;-70
2023/06/24 00:52:29;;;;;;;22.38;16.05;;;;;;;21.98;76.19;101897.06;5029398;27;97319;-70
2023/06/24 00:54:57;;;;;;;22.85;15.88;;;;;;;21.85;76.20;101902.34;5035968;27;96784;-70
2023/06/24 00:57:24;;;;;;;25.48;15.98;;;;;;;22.02;75.11;101900.41;5030714;27;98930;-70
2023/06/24 00:59:53;;;;;;;24.13;15.95;;;;;;;22.03;74.93;101902.13;5031065;27;98949;-69
2023/06/24 01:02:19;;;;;;;21.70;14.75;;;;;;;21.92;75.14;101908.19;5029923;27;96853;-69
2023/06/24 01:04:46;;;;;;;21.48;15.13;;;;;;;21.99;75.02;101901.47;5029478;28;96857;-69
2023/06/24 01:07:13;;;;;;;23.08;16.08;;;;;;;21.76;75.95;101902.94;5028948;28;97883;-69
2023/06/24 01:09:39;;;;;;;21.60;15.75;;;;;;;21.88;75.47;101904.81;5026508;27;98953;-69
2023/06/24 01:12:08;;;;;;;20.50;14.93;;;;;;;21.78;75.72;101901.00;5029727;27;96849;-69
2023/06/24 01:14:36;;;;;;;21.25;15.93;;;;;;;21.84;75.25;101903.31;5027076;27;97280;-70
2023/06/24 01:17:10;;;;;;;18.08;15.07;;;;;;;21.98;74.57;101898.88;5026131;27;101631;-69
2023/06/24 01:19:52;;;;;;;19.83;15.18;;;;;;;21.91;75.45;101898.38;5024887;27;99249;-69
2023/06/24 01:22:31;;;;;;;21.88;13.95;;;;;;;21.80;75.35;101896.38;5027476;27;98781;-70
2023/06/24 01:25:14;;;;;;;22.20;14.88;;;;;;;21.76;75.33;101889.47;5023407;27;98664;-69
2023/06/24 01:28:04;;;;;;;17.85;13.10;;;;;;;21.91;74.58;101892.13;5025590;27;98976;-70
2023/06/24 01:30:53;;;;;;;16.23;13.15;;;;;;;21.75;74.55;101892.25;5025256;27;99043;-69
2023/06/24 01:33:26;;;;;;;17.45;14.10;;;;;;;21.70;74.74;101889.00;5026294;27;97287;-69
2023/06/24 01:35:54;;;;;;;16.75;13.15;;;;;;;21.70;74.82;101889.00;5024971;27;98844;-69
2023/06/24 01:38:25;;;;;;;23.17;13.85;;;;;;;21.53;75.54;101892.75;5024919;28;102048;-69
2023/06/24 01:40:53;;;;;;;17.83;13.18;;;;;;;21.31;76.27;101895.94;5025563;28;98082;-70
2023/06/24 01:43:21;;;;;;;19.00;14.07;;;;;;;21.60;75.62;101894.09;5026976;28;97690;-69
2023/06/24 01:45:51;;;;;;;18.27;14.65;;;;;;;21.46;75.86;101894.13;5026396;28;97338;-69
2023/06/24 01:48:24;;;;;;;20.38;13.95;;;;;;;21.36;75.93;101884.88;5026275;28;99340;-68
2023/06/24 01:50:57;;;;;;;18.50;13.07;;;;;;;21.46;75.31;101891.44;5023734;28;98801;-69
2023/06/24 01:53:25;;;;;;;21.38;13.63;;;;;;;21.41;75.25;101898.91;5024854;28;98672;-68
2023/06/24 01:55:53;;;;;;;19.63;13.88;;;;;;;21.34;75.03;101892.19;5025787;27;96939;-68
2023/06/24 01:58:20;;;;;;;19.98;14.10;;;;;;;21.48;74.37;101889.50;5023488;28;98224;-68
2023/06/24 02:00:48;;;;;;;20.70;13.73;;;;;;;21.16;75.85;101890.63;5024493;28;98806;-68
2023/06/24 02:03:16;;;;;;;15.07;13.20;;;;;;;21.31;75.05;101887.00;5025561;28;97006;-70
2023/06/24 02:05:45;;;;;;;19.52;13.30;;;;;;;21.33;74.30;101882.41;5026415;28;99133;-68
2023/06/24 02:08:13;;;;;;;17.20;13.50;;;;;;;21.42;74.24;101884.50;5025901;27;100479;-68
2023/06/24 02:10:41;;;;;;;18.55;13.55;;;;;;;21.47;73.69;101882.38;5028225;27;98987;-68
2023/06/24 02:13:10;;;;;;;31.23;14.10;;;;;;;21.21;74.34;101891.22;5027073;27;98141;-70
2023/06/24 02:15:37;;;;;;;20.15;12.95;;;;;;;21.19;74.45;101891.31;5028344;28;98692;-68
2023/06/24 02:18:05;;;;;;;16.88;13.10;;;;;;;21.26;73.71;101883.75;5028589;28;99148;-70
2023/06/24 02:20:32;;;;;;;18.35;12.75;;;;;;;21.33;73.30;101877.88;5028565;28;99095;-69
2023/06/24 02:23:01;;;;;;;17.63;12.52;;;;;;;21.16;73.06;101882.56;5030205;27;96855;-69
2023/06/24 02:25:28;;;;;;;16.50;11.57;;;;;;;21.36;72.24;101880.38;5029940;28;97380;-69
2023/06/24 02:27:56;;;;;;;17.85;11.77;;;;;;;21.46;71.49;101876.13;5028051;28;99010;-69
2023/06/24 02:30:24;;;;;;;17.25;12.02;;;;;;;21.22;71.46;101871.44;5030213;28;98900;-69
2023/06/24 02:32:50;;;;;;;17.67;11.85;;;;;;;21.27;71.30;101874.69;5031610;27;96878;-69
2023/06/24 02:35:17;;;;;;;16.10;11.38;;;;;;;21.25;71.64;101873.94;5030894;28;96781;-70
2023/06/24 02:37:44;;;;;;;16.20;11.35;;;;;;;21.25;70.84;101887.41;5035230;27;99153;-70
2023/06/24 02:40:12;;;;;;;15.68;10.63;;;;;;;21.19;70.53;101882.41;5030384;28;100889;-69
2023/06/24 02:42:39;;;;;;;13.90;10.20;;;;;;;20.99;71.19;101887.16;5033434;27;96849;-69
2023/06/24 02:45:07;;;;;;;16.02;10.23;;;;;;;21.13;70.02;101898.88;5030113;28;96877;-70
2023/06/24 02:47:34;;;;;;;13.82;9.95;;;;;;;21.15;70.58;101903.19;5030158;28;99138;-68
2023/06/24 02:50:01;;;;;;;14.95;9.85;;;;;;;21.24;69.47;101902.66;5030173;28;98825;-70
2023/06/24 02:52:29;;;;;;;13.32;9.77;;;;;;;21.20;69.95;101901.09;5031181;28;97499;-69
2023/06/24 02:54:56;;;;;;;15.13;9.40;;;;;;;20.97;70.07;101902.47;5030867;28;96855;-69
2023/06/24 02:57:25;;;;;;;14.77;11.02;;;;;;;21.19;69.59;101909.28;5029295;28;98988;-68
2023/06/24 02:59:51;;;;;;;19.13;9.43;;;;;;;21.13;69.50;101917.69;5029539;28;98748;-69
2023/06/24 03:02:18;;;;;;;13.90;9.60;;;;;;;20.81;69.97;101920.47;5029417;28;97308;-70
2023/06/24 03:04:45;;;;;;;16.85;9.88;;;;;;;20.80;70.34;101918.75;5030314;28;98059;-69
2023/06/24 03:07:12;;;;;;;12.65;9.55;;;;;;;20.67;70.42;101912.41;5029216;28;98650;-68
2023/06/24 03:09:38;;;;;;;17.90;9.77;;;;;;;20.88;69.82;101919.16;5027908;27;99018;-69
2023/06/24 03:12:07;;;;;;;17.63;9.90;;;;;;;20.69;70.13;101910.47;5030527;28;96859;-69
2023/06/24 03:14:34;;;;;;;11.90;9.93;;;;;;;20.64;70.50;101923.31;5031518;28;97132;-70
2023/06/24 03:17:01;;;;;;;16.88;9.98;;;;;;;20.37;71.41;101922.22;5029636;28;99102;-70
2023/06/24 03:19:27;;;;;;;13.63;9.63;;;;;;;20.58;70.81;101924.53;5028868;27;98994;-69
2023/06/24 03:21:53;;;;;;;15.48;9.68;;;;;;;20.66;70.13;101932.16;5033375;27;97162;-70
2023/06/24 03:24:20;;;;;;;10.40;9.30;;;;;;;20.72;70.13;101936.28;5030115;27;96970;-68
2023/06/24 03:26:46;;;;;;;11.65;9.40;;;;;;;20.61;70.49;101939.63;5031671;28;97763;-69
2023/06/24 03:29:12;;;;;;;14.52;9.32;;;;;;;20.67;70.64;101944.63;5029246;28;101957;-68
2023/06/24 03:31:43;;;;;;;13.60;9.43;;;;;;;20.59;70.40;101942.38;5029300;28;99006;-69
2023/06/24 03:34:10;;;;;;;14.02;9.60;;;;;;;20.81;69.21;101941.09;5030321;28;97185;-69
2023/06/24 03:36:38;;;;;;;16.58;10.18;;;;;;;20.67;69.38;101941.94;5030748;28;97675;-69
2023/06/24 03:39:04;;;;;;;11.52;9.25;;;;;;;20.72;69.29;101937.16;5028137;28;101000;-69
2023/06/24 03:41:30;;;;;;;16.33;9.98;;;;;;;20.66;69.52;101942.88;5030523;28;96871;-69
2023/06/24 03:43:57;;;;;;;12.18;9.20;;;;;;;20.42;70.13;101945.16;5030005;27;98388;-69
2023/06/24 03:46:23;;;;;;;16.17;10.32;;;;;;;20.66;69.65;101948.25;5030512;28;101785;-69
2023/06/24 03:48:51;;;;;;;13.20;9.65;;;;;;;20.39;70.36;101945.34;5028732;28;98871;-69
2023/06/24 03:51:18;;;;;;;16.17;10.23;;;;;;;20.64;69.78;101948.34;5026284;28;96922;-69
2023/06/24 03:53:44;;;;;;;13.85;10.10;;;;;;;20.61;69.38;101944.97;5025964;28;98391;-69
2023/06/24 03:56:10;;;;;;;16.75;9.73;;;;;;;20.66;69.15;101943.75;5030706;27;99546;-69
2023/06/24 03:58:36;;;;;;;16.08;10.38;;;;;;;20.59;69.68;101941.50;5031253;28;100681;-69
2023/06/24 04:01:03;;;;;;;15.80;9.38;;;;;;;20.56;69.36;101945.22;5029733;27;96875;-69
2023/06/24 04:03:31;;;;;;;19.98;9.55;;;;;;;20.75;69.18;101953.06;5031786;27;99008;-68
2023/06/24 04:06:01;;;;;;;14.13;10.05;;;;;;;20.83;68.34;101960.69;5027555;28;99044;-68
2023/06/24 04:08:29;;;;;;;14.20;9.35;;;;;;;20.72;68.13;101953.28;5029184;28;99598;-69
2023/06/24 04:10:55;;;;;;;13.43;8.95;;;;;;;20.76;67.92;101962.88;5028189;27;97403;-68
2023/06/24 04:13:21;;;;;;;18.30;9.45;;;;;;;20.72;68.46;101955.94;5028582;28;97918;-69
2023/06/24 04:15:48;;;;;;;14.50;10.15;;;;;;;20.76;67.87;101962.00;5030860;28;99219;-69
2023/06/24 04:18:15;;;;;;;13.20;9.02;;;;;;;20.83;67.85;101955.31;5029681;27;98987;-69
2023/06/24 04:20:41;;;;;;;16.33;9.60;;;;;;;21.02;67.38;101962.19;5029038;28;97151;-70
2023/06/24 04:23:10;;;;;;;12.13;9.88;;;;;;;20.89;67.10;101966.56;5029464;27;97010;-69
2023/06/24 04:25:37;;;;;;;12.63;9.55;;;;;;;20.85;67.04;101970.38;5028671;28;98867;-69
2023/06/24 04:28:04;;;;;;;13.05;9.40;;;;;;;20.81;67.10;101973.31;5026836;27;100992;-69
2023/06/24 04:30:30;;;;;;;15.27;9.13;;;;;;;20.84;67.25;101970.47;5029514;28;96874;-69
2023/06/24 04:32:57;;;;;;;14.65;10.18;;;;;;;21.17;66.74;101964.94;5026939;28;97697;-68
2023/06/24 04:35:23;;;;;;;11.85;8.98;;;;;;;21.54;65.72;101975.16;5028842;28;99157;-68
2023/06/24 04:37:50;;;;;;;16.13;10.38;;;;;;;21.54;64.87;101979.66;5029894;28;98836;-69
2023/06/24 04:40:18;;;;;;;11.23;9.52;;;;;;;21.46;65.24;101974.78;5029041;28;96802;-69
2023/06/24 04:42:45;;;;;;;19.58;9.57;;;;;;;21.62;64.40;101980.06;5029051;28;97188;-68
2023/06/24 04:45:11;;;;;;;13.57;9.30;;;;;;;21.71;64.05;101969.63;5028549;28;98918;-69
2023/06/24 04:47:37;;;;;;;13.32;9.15;;;;;;;21.90;63.23;101973.81;5030261;28;98943;-69
2023/06/24 04:50:04;;;;;;;11.23;8.85;;;;;;;21.71;63.77;101976.81;5026707;28;98779;-68
2023/06/24 04:52:31;;;;;;;11.70;9.30;;;;;;;21.77;64.11;101973.75;5028650;27;97354;-70
2023/06/24 04:54:57;;;;;;;11.20;9.45;;;;;;;21.58;64.60;101982.09;5026363;28;99246;-69
2023/06/24 04:57:27;;;;;;;12.02;8.65;;;;;;;21.48;64.10;101991.69;5030516;28;97656;-69
2023/06/24 04:59:54;;;;;;;16.38;9.27;;;;;;;21.34;65.63;101986.28;5029611;28;97677;-69
2023/06/24 05:02:21;;;;;;;14.98;9.73;;;;;;;21.65;63.72;101986.13;5028756;27;97095;-69
2023/06/24 05:04:47;;;;;;;13.30;9.20;;;;;;;22.01;63.54;101991.03;5028449;28;101826;-69
2023/06/24 05:07:14;;;;;;;13.65;8.98;;;;;;;22.12;63.29;101998.44;5028762;28;98314;-69
2023/06/24 05:09:40;;;;;;;13.35;8.80;;;;;;;22.21;62.39;101997.84;5026550;28;96895;-68
2023/06/24 05:12:08;;;;;;;13.23;9.10;;;;;;;22.14;62.59;101996.50;5027715;28;97048;-70
2023/06/24 05:14:36;;;;;;;12.73;8.50;;;;;;;22.54;61.28;101998.34;5024815;27;98764;-68
2023/06/24 05:17:03;;;;;;;16.83;8.75;;;;;;;22.95;61.28;101994.75;5026725;27;99289;-69
2023/06/24 05:19:30;;;;;;;10.52;8.02;;;;;;;23.88;58.31;101991.81;5026117;28;96961;-69
2023/06/24 05:21:56;;;;;;;12.85;9.23;;;;;;;24.59;55.08;101988.41;5028863;27;98949;-69
2023/06/24 05:24:22;;;;;;;15.63;8.43;;;;;;;24.94;53.17;101991.19;5028195;28;98853;-68
2023/06/24 05:26:50;;;;;;;10.30;8.15;;;;;;;24.14;55.05;101992.66;5029359;28;98973;-69
2023/06/24 05:29:17;;;;;;;14.38;7.95;;;;;;;24.13;55.26;101999.00;5027309;28;97239;-69
2023/06/24 05:31:46;;;;;;;11.02;8.02;;;;;;;23.87;55.67;102000.91;5026066;28;98646;-69
2023/06/24 05:34:12;;;;;;;9.50;7.93;;;;;;;23.82;56.07;102008.47;5029505;27;99013;-70
2023/06/24 05:36:38;;;;;;;11.27;7.65;;;;;;;24.03;55.35;102001.50;5029498;28;99119;-70
2023/06/24 05:39:07;;;;;;;11.30;7.60;;;;;;;24.12;54.92;102008.09;5028316;28;96787;-70
2023/06/24 05:41:34;;;;;;;11.95;7.82;;;;;;;24.31;55.39;102010.34;5025208;28;97011;-70
2023/06/24 05:44:04;;;;;;;10.55;7.85;;;;;;;24.02;55.72;102001.63;5029376;27;99184;-69
2023/06/24 05:46:30;;;;;;;10.02;7.85;;;;;;;23.69;56.27;102013.88;5030760;28;99016;-67
2023/06/24 05:48:58;;;;;;;12.27;7.60;;;;;;;23.73;56.94;102014.50;5030581;28;99773;-70
2023/06/24 05:51:24;;;;;;;11.32;7.25;;;;;;;24.06;56.12;102022.91;5029372;27;97615;-69
2023/06/24 05:53:51;;;;;;;13.40;7.75;;;;;;;23.96;56.48;102023.69;5027851;27;101223;-69
2023/06/24 05:56:18;;;;;;;14.52;7.88;;;;;;;23.87;55.57;102016.22;5028526;27;97702;-69
2023/06/24 05:58:45;;;;;;;10.27;8.13;;;;;;;23.25;57.51;102018.75;5030159;28;97056;-70
2023/06/24 06:01:11;;;;;;;11.13;7.45;;;;;;;23.29;56.66;102017.59;5030793;28;97019;-68
2023/06/24 06:03:37;;;;;;;12.88;8.07;;;;;;;23.04;57.70;102021.06;5032363;28;98941;-70
2023/06/24 06:06:06;;;;;;;12.13;8.70;;;;;;;23.23;57.60;102021.56;5029830;28;98815;-69
2023/06/24 06:08:33;;;;;;;10.80;8.38;;;;;;;22.96;58.31;102023.44;5031437;27;97231;-69
2023/06/24 06:11:01;;;;;;;9.80;7.72;;;;;;;23.26;57.73;102013.25;5030099;28;98608;-69
2023/06/24 06:13:28;;;;;;;12.43;8.02;;;;;;;23.37;57.61;102005.28;5030649;28;99172;-68
2023/06/24 06:15:54;;;;;;;10.80;7.80;;;;;;;23.53;56.85;102009.66;5031569;28;102009;-68
2023/06/24 06:18:20;;;;;;;12.77;8.30;;;;;;;23.32;56.74;102003.88;5032721;28;97231;-69
2023/06/24 06:20:47;;;;;;;10.25;8.73;;;;;;;23.68;56.01;102000.47;5029151;27;96860;-68
2023/06/24 06:23:16;;;;;;;12.35;7.72;;;;;;;23.85;55.79;102005.53;5030190;28;98981;-69
2023/06/24 06:25:42;;;;;;;13.57;7.72;;;;;;;23.84;56.67;102011.91;5028273;27;99091;-68
2023/06/24 06:28:08;;;;;;;14.82;9.95;;;;;;;23.84;55.90;102012.75;5029988;27;96949;-68
2023/06/24 06:30:35;;;;;;;15.02;8.40;;;;;;;24.13;55.40;102009.81;5029531;27;97565;-68
2023/06/24 06:33:01;;;;;;;10.02;7.82;;;;;;;24.06;55.58;102022.03;5028697;28;98849;-69
2023/06/24 06:35:28;;;;;;;11.80;7.05;;;;;;;24.06;55.38;102012.09;5028389;28;99320;-69
2023/06/24 06:37:54;;;;;;;11.45;6.88;;;;;;;24.08;55.27;102026.34;5031102;28;98770;-69
2023/06/24 06:40:22;;;;;;;8.90;6.70;;;;;;;24.22;55.37;102022.66;5027540;27;96896;-69
2023/06/24 06:42:50;;;;;;;10.77;7.55;;;;;;;24.45;55.03;102018.28;5027659;27;102468;-69
2023/06/24 06:45:16;;;;;;;8.77;6.97;;;;;;;24.80;53.52;102018.38;5027009;28;98865;-70
2023/06/24 06:47:43;;;;;;;12.63;7.57;;;;;;;24.31;54.57;102018.44;5027831;28;98748;-69
2023/06/24 06:50:09;;;;;;;8.48;7.03;;;;;;;24.48;54.47;102013.50;5026572;28;98247;-69
2023/06/24 06:52:36;;;;;;;19.20;8.00;;;;;;;24.61;54.00;102013.50;5023967;28;98116;-69
2023/06/24 06:55:02;;;;;;;8.82;6.75;;;;;;;24.52;53.89;102011.47;5026624;27;98935;-69
2023/06/24 06:57:30;;;;;;;10.80;6.90;;;;;;;24.45;53.46;102002.09;5029301;28;97176;-68
2023/06/24 06:59:57;;;;;;;10.98;5.95;;;;;;;24.12;54.68;102000.84;5027268;27;97722;-71
2023/06/24 07:02:23;;;;;;;9.52;6.00;;;;;;;24.44;52.97;102008.47;5027532;27;99046;-69
2023/06/24 07:04:50;;;;;;;10.80;6.00;;;;;;;24.81;52.99;102001.19;5026607;28;101879;-69
2023/06/24 07:07:17;;;;;;;6.53;5.80;;;;;;;24.88;52.14;102010.53;5022759;27;98271;-68
2023/06/24 07:09:44;;;;;;;9.68;5.80;;;;;;;25.25;50.72;102014.03;5024603;27;99589;-69
2023/06/24 07:12:10;;;;;;;7.85;5.88;;;;;;;24.88;50.65;102005.97;5027015;28;99397;-69
2023/06/24 07:14:38;;;;;;;7.85;5.28;;;;;;;24.87;50.69;102004.28;5024315;27;99412;-70
2023/06/24 07:17:05;;;;;;;9.00;5.20;;;;;;;25.22;49.86;102009.72;5025807;27;96990;-70
2023/06/24 07:19:31;;;;;;;7.15;5.05;;;;;;;25.09;49.88;102018.88;5026974;28;97695;-69
2023/06/24 07:21:57;;;;;;;10.50;5.00;;;;;;;24.63;50.20;102023.19;5026351;28;99353;-69
2023/06/24 07:24:24;;;;;;;5.70;5.10;;;;;;;24.33;51.28;102016.50;5026046;27;99053;-69
2023/06/24 07:26:50;;;;;;;7.50;5.47;;;;;;;25.07;50.02;102012.75;5026368;27;97348;-69
2023/06/24 07:29:16;;;;;;;7.63;5.25;;;;;;;25.29;48.53;102021.78;5026134;27;96943;-68
2023/06/24 07:31:44;;;;;;;9.18;5.28;;;;;;;25.20;49.15;102018.94;5027240;28;102180;-67
2023/06/24 07:34:10;;;;;;;5.72;4.68;;;;;;;25.63;48.67;102028.16;5027167;27;97520;-69
2023/06/24 07:36:37;;;;;;;8.88;5.47;;;;;;;25.82;47.78;102029.41;5027653;28;98774;-69
2023/06/24 07:39:03;;;;;;;7.10;5.85;;;;;;;25.70;46.41;102031.25;5027253;28;97451;-68
2023/06/24 07:41:29;;;;;;;9.18;5.43;;;;;;;26.03;46.49;102039.41;5025982;28;101933;-69
2023/06/24 07:43:56;;;;;;;7.45;5.55;;;;;;;26.33;45.72;102036.09;5023519;27;99418;-69
2023/06/24 07:46:22;;;;;;;8.05;4.88;;;;;;;26.62;44.80;102038.25;5026194;27;98371;-69
2023/06/24 07:48:50;;;;;;;5.45;4.63;;;;;;;26.56;44.70;102035.06;5024038;28;99357;-73
2023/06/24 07:51:16;;;;;;;7.57;4.38;;;;;;;26.20;46.37;102030.78;5022385;27;99004;-72
2023/06/24 07:53:42;;;;;;;6.45;4.10;;;;;;;26.00;45.94;102028.81;5024143;28;98921;-72
2023/06/24 07:56:09;;;;;;;9.13;4.70;;;;;;;26.18;45.35;102037.31;5024173;28;97784;-74
2023/06/24 07:58:37;;;;;;;7.80;4.55;;;;;;;25.92;45.53;102031.28;5026156;28;97287;-72
2023/06/24 08:01:04;;;;;;;4.55;4.15;;;;;;;26.26;45.33;102034.00;5023423;27;99707;-72
2023/06/24 08:03:30;;;;;;;8.20;4.30;;;;;;;26.01;44.86;102040.50;5022613;28;98127;-72
2023/06/24 08:05:58;;;;;;;11.63;4.15;;;;;;;26.38;44.32;102044.72;5025304;28;97115;-72
2023/06/24 08:08:24;;;;;;;7.20;4.30;;;;;;;26.24;44.27;102039.56;5019977;27;97338;-73
2023/06/24 08:10:50;;;;;;;5.63;3.97;;;;;;;26.40;44.70;102036.44;5018520;27;101522;-74
2023/06/24 08:13:17;;;;;;;6.80;5.22;;;;;;;26.58;43.77;102035.78;5023827;28;98949;-72
2023/06/24 08:15:44;;;;;;;6.53;4.32;;;;;;;27.37;41.91;102029.09;5025095;27;97847;-71
2023/06/24 08:18:11;;;;;;;7.25;5.13;;;;;;;27.43;41.10;102030.44;5022245;28;97008;-73
2023/06/24 08:20:37;;;;;;;5.32;3.72;;;;;;;26.86;42.01;102037.06;5023109;28;101699;-72
2023/06/24 08:23:05;;;;;;;5.28;4.05;;;;;;;26.35;43.55;102038.69;5022204;28;97830;-73
2023/06/24 08:25:31;;;;;;;5.50;4.60;;;;;;;26.19;44.30;102045.28;5022730;28;98538;-73
2023/06/24 08:27:57;;;;;;;5.82;4.68;;;;;;;26.22;44.28;102043.34;5026833;28;96879;-74
2023/06/24 08:30:24;;;;;;;6.82;3.88;;;;;;;26.55;44.27;102052.31;5024720;28;98813;-73
2023/06/24 08:32:50;;;;;;;5.55;4.22;;;;;;;26.72;43.10;102052.75;5026973;28;101671;-74
2023/06/24 08:35:17;;;;;;;11.40;4.20;;;;;;;27.01;42.22;102042.22;5025123;28;97244;-71
2023/06/24 08:37:43;;;;;;;7.50;4.45;;;;;;;26.45;43.77;102050.50;5026544;27;97387;-71
2023/06/24 08:40:12;;;;;;;7.82;5.10;;;;;;;25.83;43.99;102052.81;5025745;28;103776;-72
2023/06/24 08:42:38;;;;;;;4.22;3.80;;;;;;;26.06;43.17;102046.41;5026597;28;98784;-72
2023/06/24 08:45:06;;;;;;;5.60;4.03;;;;;;;25.47;43.62;102041.13;5025394;28;97361;-73
2023/06/24 08:47:34;;;;;;;8.05;4.82;;;;;;;25.75;45.10;102046.16;5027877;28;97494;-72
2023/06/24 08:50:04;;;;;;;5.50;4.00;;;;;;;26.44;43.00;102049.63;5025034;28;99110;-72
2023/06/24 08:52:33;;;;;;;7.25;4.30;;;;;;;26.63;43.51;102043.56;5023383;28;98957;-73
2023/06/24 08:55:00;;;;;;;11.80;6.00;;;;;;;26.98;42.38;102040.63;5024795;27;98724;-72
2023/06/24 08:57:28;;;;;;;6.63;3.75;;;;;;;26.53;41.81;102046.16;5026100;27;96891;-72
2023/06/24 08:59:54;;;;;;;4.78;3.55;;;;;;;27.05;40.06;102046.41;5025835;28;98999;-73
2023/06/24 09:02:21;;;;;;;3.85;3.55;;;;;;;27.10;40.26;102042.31;5025144;28;98832;-73
2023/06/24 09:04:47;;;;;;;7.22;4.07;;;;;;;27.06;40.53;102050.84;5023596;28;97403;-72
2023/06/24 09:07:13;;;;;;;4.85;3.97;;;;;;;26.79;41.17;102048.56;5025806;28;97457;-72
2023/06/24 09:09:44;;;;;;;5.97;4.15;;;;;;;26.93;39.73;102048.28;5022794;27;99016;-71
2023/06/24 09:12:12;;;;;;;4.57;3.80;;;;;;;26.93;39.99;102054.59;5025270;28;98900;-71
2023/06/24 09:14:40;;;;;;;7.97;4.47;;;;;;;26.88;40.50;102054.09;5025292;28;97424;-73
2023/06/24 09:17:09;;;;;;;5.10;3.55;;;;;;;26.89;40.92;102055.84;5025545;28;98651;-72
2023/06/24 09:19:36;;;;;;;6.22;3.65;;;;;;;26.62;40.08;102054.53;5024084;27;99362;-72
2023/06/24 09:22:03;;;;;;;4.07;3.67;;;;;;;26.44;41.28;102051.50;5029205;27;96934;-72
2023/06/24 09:24:31;;;;;;;4.82;4.03;;;;;;;26.26;42.05;102045.69;5028478;28;96846;-74
2023/06/24 09:26:58;;;;;;;4.80;4.00;;;;;;;26.33;41.11;102054.19;5028165;28;97536;-73
2023/06/24 09:29:26;;;;;;;4.35;3.17;;;;;;;26.60;40.16;102057.34;5027252;27;98918;-72
2023/06/24 09:31:55;;;;;;;5.30;3.13;;;;;;;26.36;41.22;102056.66;5029314;28;97582;-77
2023/06/24 09:34:22;;;;;;;4.18;3.58;;;;;;;26.16;41.25;102053.69;5028077;28;98187;-71
2023/06/24 09:36:52;;;;;;;5.72;3.80;;;;;;;26.24;40.91;102042.28;5030088;28;98749;-72
2023/06/24 09:39:18;;;;;;;7.70;3.50;;;;;;;26.46;39.96;102036.81;5027253;28;98894;-73
2023/06/24 09:41:49;;;;;;;6.90;2.95;;;;;;;26.61;38.14;102034.69;5027853;28;98900;-72
2023/06/24 09:44:18;;;;;;;5.07;2.92;;;;;;;26.63;37.72;102038.13;5026166;28;97230;-73
2023/06/24 09:46:45;;;;;;;4.38;2.92;;;;;;;26.34;38.76;102043.22;5029930;28;97209;-73
2023/06/24 09:49:13;;;;;;;4.63;2.58;;;;;;;26.72;38.00;102042.78;5027924;28;99059;-77
2023/06/24 09:51:41;;;;;;;4.50;3.00;;;;;;;26.74;38.18;102045.38;5029297;28;98810;-72
2023/06/24 09:54:09;;;;;;;5.05;3.33;;;;;;;26.67;38.66;102030.59;5026411;28;96910;-71
2023/06/24 09:56:37;;;;;;;4.88;3.00;;;;;;;27.11;38.69;102030.47;5029321;28;97081;-72
2023/06/24 09:59:05;;;;;;;4.80;2.88;;;;;;;26.89;38.41;102031.44;5021283;28;99858;-72
2023/06/24 10:01:32;;;;;;;2.83;2.42;;;;;;;26.72;39.52;102031.94;5028722;28;97574;-71
2023/06/24 10:03:59;;;;;;;3.10;2.53;;;;;;;26.83;37.70;102026.50;5027994;28;98524;-72
2023/06/24 10:06:27;;;;;;;4.18;2.50;;;;;;;26.82;37.30;102023.91;5028423;28;97795;-75
2023/06/24 10:08:53;;;;;;;5.40;2.72;;;;;;;26.63;38.51;102026.44;5027518;28;97576;-74
2023/06/24 10:11:20;;;;;;;5.28;2.33;;;;;;;26.58;38.34;102021.41;5025993;27;99398;-72
2023/06/24 10:13:46;;;;;;;4.15;2.30;;;;;;;26.63;37.98;102021.00;5027263;27;98417;-73
2023/06/24 10:16:13;;;;;;;5.13;2.40;;;;;;;26.71;38.09;102013.97;5026708;28;97148;-75
2023/06/24 10:18:41;;;;;;;7.10;2.78;;;;;;;26.69;38.66;102012.38;5027778;27;99167;-73
2023/06/24 10:21:08;;;;;;;2.70;2.22;;;;;;;27.01;38.27;102012.41;5027487;28;98808;-72
2023/06/24 10:23:41;;;;;;;2.85;2.40;;;;;;;27.26;37.83;102015.59;5027514;28;97300;-72
2023/06/24 10:26:09;;;;;;;4.82;3.28;;;;;;;27.49;37.95;102010.91;5030565;27;96917;-74
2023/06/24 10:29:10;;;;;;;6.90;2.85;;;;;;;27.06;37.56;102008.28;5026147;28;98956;-72
2023/06/24 10:31:52;;;;;;;3.92;2.75;;;;;;;27.06;37.71;102013.72;5026197;27;98806;-73
2023/06/24 10:34:23;;;;;;;3.40;3.13;;;;;;;27.35;38.14;102017.53;5024421;28;98377;-73
2023/06/24 10:36:54;;;;;;;4.45;3.15;;;;;;;27.36;37.10;102013.81;5028270;28;97263;-73
2023/06/24 10:42:30;;;;;;;5.50;2.88;;;;;;;26.92;38.69;102011.31;5067340;27;96841;-73
2023/06/24 10:44:57;;;;;;;4.50;3.00;;;;;;;26.79;40.35;102006.03;5064609;27;98542;-73
2023/06/24 10:47:24;;;;;;;3.97;3.10;;;;;;;26.59;40.81;101998.69;5063490;27;101264;-73
2023/06/24 10:49:51;;;;;;;5.28;3.15;;;;;;;26.69;40.79;101994.25;5063316;27;99280;-72
2023/06/24 10:52:20;;;;;;;3.53;3.22;;;;;;;26.88;39.12;101993.56;5065117;27;96926;-71
2023/06/24 10:54:46;;;;;;;6.38;2.80;;;;;;;26.94;38.33;102001.19;5063153;27;98745;-72
2023/06/24 10:57:13;;;;;;;4.63;2.95;;;;;;;27.17;37.35;102000.13;5063166;27;98766;-72
2023/06/24 10:59:41;;;;;;;6.63;3.35;;;;;;;27.07;37.98;101998.31;5063858;27;99044;-74
2023/06/24 11:02:09;;;;;;;5.03;3.08;;;;;;;27.16;38.43;101998.38;5064775;27;96898;-73
2023/06/24 11:04:43;;;;;;;4.70;2.97;;;;;;;27.35;37.78;101990.38;5064353;27;97318;-73
2023/06/24 11:07:09;;;;;;;4.13;3.17;;;;;;;27.17;37.40;101996.53;5062177;27;97656;-73
2023/06/24 11:09:36;;;;;;;4.80;3.67;;;;;;;27.26;37.38;101985.75;5064974;27;98593;-73
2023/06/24 11:12:04;;;;;;;6.60;3.22;;;;;;;27.15;37.73;101990.38;5065598;27;97580;-73
2023/06/24 11:14:30;;;;;;;7.32;3.50;;;;;;;27.23;37.58;101994.16;5066900;27;97892;-72
2023/06/24 11:17:01;;;;;;;4.85;2.78;;;;;;;27.13;37.66;101993.22;5060894;27;98931;-72
2023/06/24 11:19:28;;;;;;;3.60;3.30;;;;;;;27.05;38.18;101989.44;5063431;27;99300;-73
2023/06/24 11:21:54;;;;;;;6.50;4.20;;;;;;;26.77;38.55;101996.31;5064538;27;98736;-73